sensor_id;sensor_type;location;lat;lon;timestamp;pressure;altitude;pressure_sealevel;temperature;humidity
70458;BME280;57919;56.194;95.716;2023-06-22T00:04:42;97969.88;;;18.07;75.33
70458;BME280;57919;56.194;95.716;2023-06-22T00:14:44;97964.94;;;18.94;72.66
70458;BME280;57919;56.194;95.716;2023-06-22T00:24:46;97971.41;;;18.55;73.33
70458;BME280;57919;56.194;95.716;2023-06-22T00:34:48;97967.28;;;18.32;73.82
70458;BME280;57919;56.194;95.716;2023-06-22T00:44:51;97963.56;;;18.07;74.73
70458;BME280;57919;56.194;95.716;2023-06-22T00:54:53;97976.50;;;18.45;73.89
70458;BME280;57919;56.194;95.716;2023-06-22T01:04:56;97983.91;;;18.95;73.25
70458;BME280;57919;56.194;95.716;2023-06-22T01:15:07;98008.97;;;19.37;72.51
70458;BME280;57919;56.194;95.716;2023-06-22T01:25:20;98011.78;;;19.87;71.57
70458;BME280;57919;56.194;95.716;2023-06-22T01:35:22;98016.94;;;19.77;72.27
70458;BME280;57919;56.194;95.716;2023-06-22T01:45:26;98038.19;;;19.56;72.62
70458;BME280;57919;56.194;95.716;2023-06-22T01:55:28;98030.41;;;19.53;73.31
70458;BME280;57919;56.194;95.716;2023-06-22T02:05:37;98030.19;;;19.55;72.90
70458;BME280;57919;56.194;95.716;2023-06-22T02:15:40;98045.94;;;19.66;73.12
70458;BME280;57919;56.194;95.716;2023-06-22T02:25:43;98081.03;;;19.51;73.94
70458;BME280;57919;56.194;95.716;2023-06-22T02:35:46;98079.13;;;19.13;75.30
70458;BME280;57919;56.194;95.716;2023-06-22T02:45:50;98105.16;;;18.84;76.44
70458;BME280;57919;56.194;95.716;2023-06-22T02:55:53;98096.53;;;18.74;77.24
70458;BME280;57919;56.194;95.716;2023-06-22T03:05:55;98068.91;;;18.82;76.99
70458;BME280;57919;56.194;95.716;2023-06-22T03:15:59;98059.69;;;18.70;78.12
70458;BME280;57919;56.194;95.716;2023-06-22T03:26:02;98103.44;;;18.96;78.46
70458;BME280;57919;56.194;95.716;2023-06-22T03:36:04;98089.59;;;19.29;77.16
70458;BME280;57919;56.194;95.716;2023-06-22T03:46:06;98072.69;;;18.88;78.17
70458;BME280;57919;56.194;95.716;2023-06-22T03:56:08;98070.91;;;19.07;78.05
70458;BME280;57919;56.194;95.716;2023-06-22T04:06:10;98099.13;;;19.20;77.46
70458;BME280;57919;56.194;95.716;2023-06-22T04:16:12;98075.56;;;19.06;77.91
70458;BME280;57919;56.194;95.716;2023-06-22T04:26:14;98076.78;;;19.17;77.69
70458;BME280;57919;56.194;95.716;2023-06-22T04:36:16;98073.41;;;19.15;77.55
70458;BME280;57919;56.194;95.716;2023-06-22T04:46:18;98082.22;;;19.23;77.44
70458;BME280;57919;56.194;95.716;2023-06-22T04:56:20;98077.09;;;20.03;75.69
70458;BME280;57919;56.194;95.716;2023-06-22T05:06:23;98063.97;;;22.00;71.41
70458;BME280;57919;56.194;95.716;2023-06-22T05:16:28;98072.00;;;23.18;68.37
70458;BME280;57919;56.194;95.716;2023-06-22T05:26:31;98073.81;;;24.26;64.88
70458;BME280;57919;56.194;95.716;2023-06-22T05:36:34;98071.38;;;24.30;64.07
70458;BME280;57919;56.194;95.716;2023-06-22T05:46:36;98068.16;;;24.04;63.76
70458;BME280;57919;56.194;95.716;2023-06-22T05:56:38;98045.50;;;23.57;64.84
70458;BME280;57919;56.194;95.716;2023-06-22T06:06:39;98059.06;;;23.59;64.81
70458;BME280;57919;56.194;95.716;2023-06-22T06:16:41;98071.09;;;24.14;63.65
70458;BME280;57919;56.194;95.716;2023-06-22T06:26:43;98067.06;;;24.72;61.79
70458;BME280;57919;56.194;95.716;2023-06-22T06:36:45;98042.75;;;25.62;58.46
70458;BME280;57919;56.194;95.716;2023-06-22T06:46:47;98036.34;;;26.15;57.12
70458;BME280;57919;56.194;95.716;2023-06-22T06:56:49;98062.09;;;26.80;54.70
70458;BME280;57919;56.194;95.716;2023-06-22T07:06:51;98042.41;;;27.33;53.36
70458;BME280;57919;56.194;95.716;2023-06-22T07:16:53;98029.81;;;26.63;54.79
70458;BME280;57919;56.194;95.716;2023-06-22T07:26:55;98005.06;;;27.04;53.36
70458;BME280;57919;56.194;95.716;2023-06-22T07:36:59;97999.97;;;26.06;54.71
70458;BME280;57919;56.194;95.716;2023-06-22T07:47:00;98016.34;;;25.05;56.68
70458;BME280;57919;56.194;95.716;2023-06-22T07:57:03;98017.25;;;24.51;57.50
70458;BME280;57919;56.194;95.716;2023-06-22T08:07:05;98023.63;;;24.17;59.10
70458;BME280;57919;56.194;95.716;2023-06-22T08:17:07;97991.63;;;23.71;59.48
70458;BME280;57919;56.194;95.716;2023-06-22T08:27:10;97989.53;;;23.62;59.69
70458;BME280;57919;56.194;95.716;2023-06-22T08:37:15;97974.00;;;23.44;59.78
70458;BME280;57919;56.194;95.716;2023-06-22T08:47:16;97945.81;;;23.13;60.57
70458;BME280;57919;56.194;95.716;2023-06-22T08:57:18;97950.44;;;22.96;61.50
70458;BME280;57919;56.194;95.716;2023-06-22T09:07:21;97954.00;;;23.08;61.27
70458;BME280;57919;56.194;95.716;2023-06-22T09:17:24;97924.66;;;23.98;59.58
70458;BME280;57919;56.194;95.716;2023-06-22T09:27:26;97930.66;;;24.28;59.19
70458;BME280;57919;56.194;95.716;2023-06-22T09:37:28;97953.75;;;24.39;59.06
70458;BME280;57919;56.194;95.716;2023-06-22T09:47:30;97941.41;;;23.91;60.14
70458;BME280;57919;56.194;95.716;2023-06-22T09:57:32;97959.16;;;23.62;61.09
70458;BME280;57919;56.194;95.716;2023-06-22T10:07:36;97948.50;;;24.37;59.99
70458;BME280;57919;56.194;95.716;2023-06-22T10:17:43;97944.25;;;24.73;58.77
70458;BME280;57919;56.194;95.716;2023-06-22T10:27:45;97940.84;;;24.88;58.75
70458;BME280;57919;56.194;95.716;2023-06-22T10:37:48;97954.28;;;24.36;58.73
70458;BME280;57919;56.194;95.716;2023-06-22T10:47:50;97967.78;;;23.82;60.09
70458;BME280;57919;56.194;95.716;2023-06-22T10:57:52;97971.28;;;23.77;59.89
70458;BME280;57919;56.194;95.716;2023-06-22T11:07:54;97974.03;;;23.61;60.33
70458;BME280;57919;56.194;95.716;2023-06-22T11:17:56;97990.69;;;23.37;60.29
70458;BME280;57919;56.194;95.716;2023-06-22T11:27:58;97980.59;;;23.14;60.56
70458;BME280;57919;56.194;95.716;2023-06-22T11:38:00;97993.53;;;22.85;60.63
70458;BME280;57919;56.194;95.716;2023-06-22T11:48:02;98001.16;;;22.32;61.36
70458;BME280;57919;56.194;95.716;2023-06-22T11:58:04;98031.31;;;22.03;62.25
70458;BME280;57919;56.194;95.716;2023-06-22T12:08:08;98050.16;;;21.76;63.62
70458;BME280;57919;56.194;95.716;2023-06-22T12:18:11;98072.16;;;21.65;63.99
70458;BME280;57919;56.194;95.716;2023-06-22T12:28:13;98103.84;;;21.19;64.86
70458;BME280;57919;56.194;95.716;2023-06-22T12:38:15;98180.53;;;19.20;63.17
70458;BME280;57919;56.194;95.716;2023-06-22T12:48:17;98181.22;;;17.96;67.43
70458;BME280;57919;56.194;95.716;2023-06-22T12:58:19;98173.28;;;17.47;69.17
70458;BME280;57919;56.194;95.716;2023-06-22T13:08:21;98178.31;;;17.43;69.01
70458;BME280;57919;56.194;95.716;2023-06-22T13:18:23;98175.53;;;17.30;69.09
70458;BME280;57919;56.194;95.716;2023-06-22T13:28:25;98170.66;;;17.26;68.81
70458;BME280;57919;56.194;95.716;2023-06-22T13:38:27;98135.53;;;17.23;68.79
70458;BME280;57919;56.194;95.716;2023-06-22T13:48:29;98153.44;;;17.32;68.64
70458;BME280;57919;56.194;95.716;2023-06-22T13:58:31;98171.53;;;17.33;68.56
70458;BME280;57919;56.194;95.716;2023-06-22T14:08:33;98196.88;;;17.14;69.24
70458;BME280;57919;56.194;95.716;2023-06-22T14:18:34;98201.75;;;16.84;70.24
70458;BME280;57919;56.194;95.716;2023-06-22T14:28:36;98213.53;;;16.63;70.61
70458;BME280;57919;56.194;95.716;2023-06-22T14:38:38;98233.09;;;16.38;71.01
70458;BME280;57919;56.194;95.716;2023-06-22T14:48:40;98207.94;;;16.00;71.52
70458;BME280;57919;56.194;95.716;2023-06-22T14:58:43;98230.06;;;15.69;72.43
70458;BME280;57919;56.194;95.716;2023-06-22T15:08:48;98260.34;;;15.45;72.79
70458;BME280;57919;56.194;95.716;2023-06-22T15:18:50;98261.22;;;15.16;73.64
70458;BME280;57919;56.194;95.716;2023-06-22T15:28:52;98265.72;;;14.94;74.09
70458;BME280;57919;56.194;95.716;2023-06-22T15:38:54;98260.81;;;14.75;73.86
70458;BME280;57919;56.194;95.716;2023-06-22T15:48:56;98256.44;;;14.51;74.86
70458;BME280;57919;56.194;95.716;2023-06-22T15:58:58;98264.47;;;14.21;75.63
70458;BME280;57919;56.194;95.716;2023-06-22T16:09:00;98257.03;;;13.93;76.53
70458;BME280;57919;56.194;95.716;2023-06-22T16:19:03;98257.66;;;13.72;76.74
70458;BME280;57919;56.194;95.716;2023-06-22T16:29:04;98277.84;;;13.77;76.58
70458;BME280;57919;56.194;95.716;2023-06-22T16:39:06;98293.09;;;13.55;77.29
70458;BME280;57919;56.194;95.716;2023-06-22T16:49:08;98285.69;;;13.41;77.65
70458;BME280;57919;56.194;95.716;2023-06-22T16:59:09;98272.31;;;13.15;77.92
70458;BME280;57919;56.194;95.716;2023-06-22T17:09:13;98273.03;;;13.09;78.25
70458;BME280;57919;56.194;95.716;2023-06-22T17:19:16;98277.63;;;13.17;78.22
70458;BME280;57919;56.194;95.716;2023-06-22T17:29:18;98285.25;;;13.21;78.77
70458;BME280;57919;56.194;95.716;2023-06-22T17:39:22;98296.41;;;13.35;79.98
70458;BME280;57919;56.194;95.716;2023-06-22T17:49:28;98299.94;;;13.43;79.08
70458;BME280;57919;56.194;95.716;2023-06-22T17:59:32;98288.75;;;13.38;79.05
70458;BME280;57919;56.194;95.716;2023-06-22T18:09:34;98293.56;;;13.12;79.50
70458;BME280;57919;56.194;95.716;2023-06-22T18:19:37;98286.31;;;12.88;80.50
70458;BME280;57919;56.194;95.716;2023-06-22T18:29:39;98268.56;;;12.61;80.95
70458;BME280;57919;56.194;95.716;2023-06-22T18:39:44;98277.03;;;12.50;82.51
70458;BME280;57919;56.194;95.716;2023-06-22T18:49:48;98254.66;;;12.40;82.67
70458;BME280;57919;56.194;95.716;2023-06-22T19:10:25;98265.69;;;12.30;83.27
70458;BME280;57919;56.194;95.716;2023-06-22T19:20:32;98268.06;;;12.25;83.21
70458;BME280;57919;56.194;95.716;2023-06-22T19:30:37;98261.09;;;12.14;82.70
70458;BME280;57919;56.194;95.716;2023-06-22T19:40:39;98283.63;;;12.07;83.45
70458;BME280;57919;56.194;95.716;2023-06-22T19:50:42;98278.38;;;12.05;84.84
70458;BME280;57919;56.194;95.716;2023-06-22T20:00:44;98271.63;;;12.17;84.19
70458;BME280;57919;56.194;95.716;2023-06-22T20:10:55;98278.41;;;12.21;84.17
70458;BME280;57919;56.194;95.716;2023-06-22T20:20:59;98255.00;;;12.12;84.70
70458;BME280;57919;56.194;95.716;2023-06-22T20:31:03;98253.81;;;12.07;84.25
70458;BME280;57919;56.194;95.716;2023-06-22T20:41:06;98255.50;;;12.08;83.74
70458;BME280;57919;56.194;95.716;2023-06-22T20:51:08;98267.03;;;12.18;83.65
70458;BME280;57919;56.194;95.716;2023-06-22T21:01:10;98269.09;;;12.32;82.79
70458;BME280;57919;56.194;95.716;2023-06-22T21:11:19;98271.44;;;12.27;82.28
70458;BME280;57919;56.194;95.716;2023-06-22T21:21:21;98304.50;;;12.14;81.98
70458;BME280;57919;56.194;95.716;2023-06-22T21:31:23;98314.63;;;12.04;81.95
70458;BME280;57919;56.194;95.716;2023-06-22T21:41:25;98313.44;;;11.99;82.15
70458;BME280;57919;56.194;95.716;2023-06-22T21:51:27;98331.25;;;12.09;81.83
70458;BME280;57919;56.194;95.716;2023-06-22T22:01:29;98327.19;;;12.21;82.23
70458;BME280;57919;56.194;95.716;2023-06-22T22:11:31;98364.38;;;12.78;81.33
70458;BME280;57919;56.194;95.716;2023-06-22T22:21:34;98370.88;;;13.48;79.98
70458;BME280;57919;56.194;95.716;2023-06-22T22:31:36;98366.59;;;13.62;79.12
70458;BME280;57919;56.194;95.716;2023-06-22T22:41:40;98364.50;;;13.25;79.99
70458;BME280;57919;56.194;95.716;2023-06-22T22:51:43;98392.31;;;13.35;80.26
70458;BME280;57919;56.194;95.716;2023-06-22T23:01:44;98376.06;;;13.74;79.90
70458;BME280;57919;56.194;95.716;2023-06-22T23:11:46;98363.59;;;14.73;77.72
70458;BME280;57919;56.194;95.716;2023-06-22T23:21:49;98339.06;;;14.96;75.99
70458;BME280;57919;56.194;95.716;2023-06-22T23:31:54;98332.72;;;16.49;73.28
70458;BME280;57919;56.194;95.716;2023-06-22T23:41:56;98336.47;;;18.22;68.61
70458;BME280;57919;56.194;95.716;2023-06-22T23:52:02;98338.72;;;19.26;64.80
